Weather at Wilder/Natwick LLC Airport

Public forecast

Using degrees Fahrenheit for public forecast. Weather courtesy of forecast.io.

Closest aviation weather report (METAR) to Wilder/Natwick LLC Airport

Closest report is Iliamna Airport, 32.0 nm (59.2 km) SW. Retrieved 2021/06/23 00:53 UTC (35 minutes ago):

PAIL 230053Z 09013G23KT 10SM OVC033 12/07 A2986

Closest aviation forecast (TAF) to Wilder/Natwick LLC Airport

Closest forecast is Iliamna Airport, 32.0 nm (59.2 km) SW. Retrieved 2021-06-23 00:42 UTC (46 minutes ago):

TAF PAIL 222340Z 2300/2324 10015G25KT P6SM OVC035 FM232000 08015G25KT P6SM -RA OVC050